sensor_id;sensor_type;location;lat;lon;timestamp;P1;durP1;ratioP1;P2;durP2;ratioP2
47635;SDS011;33364;50.766;15.338;2022-12-18T00:01:41;10.35;;;5.03;;
47635;SDS011;33364;50.766;15.338;2022-12-18T00:04:11;14.45;;;4.68;;
47635;SDS011;33364;50.766;15.338;2022-12-18T00:06:47;13.95;;;6.03;;
47635;SDS011;33364;50.766;15.338;2022-12-18T00:09:12;11.82;;;4.55;;
47635;SDS011;33364;50.766;15.338;2022-12-18T00:11:38;8.45;;;4.10;;
47635;SDS011;33364;50.766;15.338;2022-12-18T00:14:04;10.32;;;4.35;;
47635;SDS011;33364;50.766;15.338;2022-12-18T00:16:30;9.73;;;3.40;;
47635;SDS011;33364;50.766;15.338;2022-12-18T00:18:58;12.88;;;4.40;;
47635;SDS011;33364;50.766;15.338;2022-12-18T00:21:26;9.82;;;4.05;;
47635;SDS011;33364;50.766;15.338;2022-12-18T00:23:52;10.68;;;4.75;;
47635;SDS011;33364;50.766;15.338;2022-12-18T00:26:19;10.23;;;4.15;;
47635;SDS011;33364;50.766;15.338;2022-12-18T00:28:47;10.60;;;4.45;;
47635;SDS011;33364;50.766;15.338;2022-12-18T00:31:14;10.35;;;4.88;;
47635;SDS011;33364;50.766;15.338;2022-12-18T00:33:41;9.73;;;4.60;;
47635;SDS011;33364;50.766;15.338;2022-12-18T00:36:12;10.60;;;4.45;;
47635;SDS011;33364;50.766;15.338;2022-12-18T00:38:43;5.55;;;2.55;;
47635;SDS011;33364;50.766;15.338;2022-12-18T00:41:09;8.13;;;3.55;;
47635;SDS011;33364;50.766;15.338;2022-12-18T00:43:36;7.47;;;3.42;;
47635;SDS011;33364;50.766;15.338;2022-12-18T00:46:03;11.57;;;4.45;;
47635;SDS011;33364;50.766;15.338;2022-12-18T00:48:29;14.43;;;5.18;;
47635;SDS011;33364;50.766;15.338;2022-12-18T00:50:55;21.80;;;7.97;;
47635;SDS011;33364;50.766;15.338;2022-12-18T00:53:21;9.73;;;5.18;;
47635;SDS011;33364;50.766;15.338;2022-12-18T00:55:47;15.38;;;5.30;;
47635;SDS011;33364;50.766;15.338;2022-12-18T00:58:13;8.35;;;4.05;;
47635;SDS011;33364;50.766;15.338;2022-12-18T01:00:40;11.15;;;5.57;;
47635;SDS011;33364;50.766;15.338;2022-12-18T01:03:06;9.80;;;4.57;;
47635;SDS011;33364;50.766;15.338;2022-12-18T01:05:32;10.80;;;4.20;;
47635;SDS011;33364;50.766;15.338;2022-12-18T01:07:58;9.20;;;4.45;;
47635;SDS011;33364;50.766;15.338;2022-12-18T01:10:24;10.45;;;4.10;;
47635;SDS011;33364;50.766;15.338;2022-12-18T01:12:50;11.80;;;4.60;;
47635;SDS011;33364;50.766;15.338;2022-12-18T01:15:17;9.82;;;3.97;;
47635;SDS011;33364;50.766;15.338;2022-12-18T01:17:44;9.82;;;4.40;;
47635;SDS011;33364;50.766;15.338;2022-12-18T01:20:10;14.63;;;5.30;;
47635;SDS011;33364;50.766;15.338;2022-12-18T01:22:36;15.70;;;5.80;;
47635;SDS011;33364;50.766;15.338;2022-12-18T01:25:02;15.85;;;7.70;;
47635;SDS011;33364;50.766;15.338;2022-12-18T01:27:29;14.65;;;6.90;;
47635;SDS011;33364;50.766;15.338;2022-12-18T01:29:55;16.15;;;7.18;;
47635;SDS011;33364;50.766;15.338;2022-12-18T01:32:21;14.45;;;5.65;;
47635;SDS011;33364;50.766;15.338;2022-12-18T01:34:47;16.67;;;5.65;;
47635;SDS011;33364;50.766;15.338;2022-12-18T01:37:12;13.18;;;6.03;;
47635;SDS011;33364;50.766;15.338;2022-12-18T01:39:39;15.48;;;6.28;;
47635;SDS011;33364;50.766;15.338;2022-12-18T01:42:09;12.88;;;5.70;;
47635;SDS011;33364;50.766;15.338;2022-12-18T01:50:23;11.02;;;5.28;;
47635;SDS011;33364;50.766;15.338;2022-12-18T01:52:54;13.10;;;4.38;;
47635;SDS011;33364;50.766;15.338;2022-12-18T01:55:24;14.95;;;4.57;;
47635;SDS011;33364;50.766;15.338;2022-12-18T01:57:54;12.02;;;4.47;;
47635;SDS011;33364;50.766;15.338;2022-12-18T02:00:22;15.27;;;5.28;;
47635;SDS011;33364;50.766;15.338;2022-12-18T02:02:49;12.07;;;6.22;;
47635;SDS011;33364;50.766;15.338;2022-12-18T02:05:16;20.08;;;6.35;;
47635;SDS011;33364;50.766;15.338;2022-12-18T02:10:30;11.07;;;4.95;;
47635;SDS011;33364;50.766;15.338;2022-12-18T02:15:59;12.98;;;5.53;;
47635;SDS011;33364;50.766;15.338;2022-12-18T02:18:35;15.57;;;6.18;;
47635;SDS011;33364;50.766;15.338;2022-12-18T02:26:40;12.15;;;4.70;;
47635;SDS011;33364;50.766;15.338;2022-12-18T02:29:16;13.73;;;5.70;;
47635;SDS011;33364;50.766;15.338;2022-12-18T02:31:52;11.95;;;4.88;;
47635;SDS011;33364;50.766;15.338;2022-12-18T02:34:22;8.57;;;4.00;;
47635;SDS011;33364;50.766;15.338;2022-12-18T02:36:52;12.65;;;5.32;;
47635;SDS011;33364;50.766;15.338;2022-12-18T02:39:19;14.88;;;5.30;;
47635;SDS011;33364;50.766;15.338;2022-12-18T02:41:47;12.57;;;4.97;;
47635;SDS011;33364;50.766;15.338;2022-12-18T02:44:14;10.90;;;4.55;;
47635;SDS011;33364;50.766;15.338;2022-12-18T02:52:05;13.57;;;4.43;;
47635;SDS011;33364;50.766;15.338;2022-12-18T02:54:54;12.45;;;4.78;;
47635;SDS011;33364;50.766;15.338;2022-12-18T02:57:33;10.73;;;4.55;;
47635;SDS011;33364;50.766;15.338;2022-12-18T03:00:08;11.20;;;4.45;;
47635;SDS011;33364;50.766;15.338;2022-12-18T03:05:21;10.68;;;4.95;;
47635;SDS011;33364;50.766;15.338;2022-12-18T03:07:53;12.00;;;4.97;;
47635;SDS011;33364;50.766;15.338;2022-12-18T03:10:25;12.57;;;5.15;;
47635;SDS011;33364;50.766;15.338;2022-12-18T03:13:13;9.48;;;3.60;;
47635;SDS011;33364;50.766;15.338;2022-12-18T03:15:45;10.95;;;4.07;;
47635;SDS011;33364;50.766;15.338;2022-12-18T03:18:16;13.77;;;5.30;;
47635;SDS011;33364;50.766;15.338;2022-12-18T03:20:45;10.10;;;3.85;;
47635;SDS011;33364;50.766;15.338;2022-12-18T03:23:15;10.20;;;4.13;;
47635;SDS011;33364;50.766;15.338;2022-12-18T03:25:45;10.27;;;3.95;;
47635;SDS011;33364;50.766;15.338;2022-12-18T03:28:15;9.85;;;4.00;;
47635;SDS011;33364;50.766;15.338;2022-12-18T03:30:46;11.05;;;4.15;;
47635;SDS011;33364;50.766;15.338;2022-12-18T03:33:16;9.55;;;3.80;;
47635;SDS011;33364;50.766;15.338;2022-12-18T03:35:46;10.45;;;5.15;;
47635;SDS011;33364;50.766;15.338;2022-12-18T03:38:13;8.52;;;3.50;;
47635;SDS011;33364;50.766;15.338;2022-12-18T03:40:53;10.70;;;4.03;;
47635;SDS011;33364;50.766;15.338;2022-12-18T03:48:52;11.65;;;4.05;;
47635;SDS011;33364;50.766;15.338;2022-12-18T03:54:07;9.82;;;4.13;;
47635;SDS011;33364;50.766;15.338;2022-12-18T03:56:42;8.32;;;3.70;;
47635;SDS011;33364;50.766;15.338;2022-12-18T03:59:13;11.38;;;3.75;;
47635;SDS011;33364;50.766;15.338;2022-12-18T04:01:43;7.97;;;3.95;;
47635;SDS011;33364;50.766;15.338;2022-12-18T04:04:13;9.77;;;4.10;;
47635;SDS011;33364;50.766;15.338;2022-12-18T04:06:41;9.05;;;3.35;;
47635;SDS011;33364;50.766;15.338;2022-12-18T04:09:10;6.97;;;3.40;;
47635;SDS011;33364;50.766;15.338;2022-12-18T04:11:35;8.80;;;3.22;;
47635;SDS011;33364;50.766;15.338;2022-12-18T04:14:01;8.93;;;3.63;;
47635;SDS011;33364;50.766;15.338;2022-12-18T04:16:27;7.32;;;2.63;;
47635;SDS011;33364;50.766;15.338;2022-12-18T04:18:53;7.05;;;3.30;;
47635;SDS011;33364;50.766;15.338;2022-12-18T04:21:19;7.78;;;2.90;;
47635;SDS011;33364;50.766;15.338;2022-12-18T04:23:45;6.57;;;2.70;;
47635;SDS011;33364;50.766;15.338;2022-12-18T04:26:11;7.50;;;3.55;;
47635;SDS011;33364;50.766;15.338;2022-12-18T04:28:36;10.10;;;3.28;;
47635;SDS011;33364;50.766;15.338;2022-12-18T04:31:02;8.50;;;4.05;;
47635;SDS011;33364;50.766;15.338;2022-12-18T04:33:29;7.80;;;4.45;;
47635;SDS011;33364;50.766;15.338;2022-12-18T04:35:55;7.88;;;4.05;;
47635;SDS011;33364;50.766;15.338;2022-12-18T04:38:21;8.10;;;3.20;;
47635;SDS011;33364;50.766;15.338;2022-12-18T04:40:46;7.05;;;4.38;;
47635;SDS011;33364;50.766;15.338;2022-12-18T04:43:12;10.15;;;5.05;;
47635;SDS011;33364;50.766;15.338;2022-12-18T04:45:38;10.32;;;4.57;;
47635;SDS011;33364;50.766;15.338;2022-12-18T04:48:04;8.52;;;4.10;;
47635;SDS011;33364;50.766;15.338;2022-12-18T04:50:29;8.63;;;3.85;;
47635;SDS011;33364;50.766;15.338;2022-12-18T04:52:56;10.20;;;3.83;;
47635;SDS011;33364;50.766;15.338;2022-12-18T04:55:22;9.85;;;3.92;;
47635;SDS011;33364;50.766;15.338;2022-12-18T04:57:48;10.40;;;4.22;;
47635;SDS011;33364;50.766;15.338;2022-12-18T05:00:13;9.20;;;3.92;;
47635;SDS011;33364;50.766;15.338;2022-12-18T05:02:39;7.35;;;3.78;;
47635;SDS011;33364;50.766;15.338;2022-12-18T05:05:05;10.65;;;4.75;;
47635;SDS011;33364;50.766;15.338;2022-12-18T05:07:31;11.45;;;4.95;;
47635;SDS011;33364;50.766;15.338;2022-12-18T05:09:56;10.40;;;5.25;;
47635;SDS011;33364;50.766;15.338;2022-12-18T05:12:22;10.95;;;4.38;;
47635;SDS011;33364;50.766;15.338;2022-12-18T05:14:49;15.13;;;5.55;;
47635;SDS011;33364;50.766;15.338;2022-12-18T05:17:15;12.63;;;6.00;;
47635;SDS011;33364;50.766;15.338;2022-12-18T05:19:40;17.13;;;6.75;;
47635;SDS011;33364;50.766;15.338;2022-12-18T05:22:06;12.05;;;4.68;;
47635;SDS011;33364;50.766;15.338;2022-12-18T05:24:32;11.32;;;4.55;;
47635;SDS011;33364;50.766;15.338;2022-12-18T05:26:57;12.95;;;4.80;;
47635;SDS011;33364;50.766;15.338;2022-12-18T05:29:23;8.70;;;3.95;;
47635;SDS011;33364;50.766;15.338;2022-12-18T05:31:49;8.27;;;3.47;;
47635;SDS011;33364;50.766;15.338;2022-12-18T05:34:15;16.75;;;5.88;;
47635;SDS011;33364;50.766;15.338;2022-12-18T05:36:41;13.75;;;5.25;;
47635;SDS011;33364;50.766;15.338;2022-12-18T05:39:06;10.13;;;3.95;;
47635;SDS011;33364;50.766;15.338;2022-12-18T05:41:32;10.00;;;3.30;;
47635;SDS011;33364;50.766;15.338;2022-12-18T05:43:58;7.22;;;3.55;;
47635;SDS011;33364;50.766;15.338;2022-12-18T05:46:24;9.75;;;3.78;;
47635;SDS011;33364;50.766;15.338;2022-12-18T05:48:50;11.02;;;4.80;;
47635;SDS011;33364;50.766;15.338;2022-12-18T05:51:17;16.98;;;5.82;;
47635;SDS011;33364;50.766;15.338;2022-12-18T05:53:45;16.15;;;6.10;;
47635;SDS011;33364;50.766;15.338;2022-12-18T05:56:13;17.13;;;6.50;;
47635;SDS011;33364;50.766;15.338;2022-12-18T05:58:40;23.45;;;7.30;;
47635;SDS011;33364;50.766;15.338;2022-12-18T06:01:10;27.58;;;8.02;;
47635;SDS011;33364;50.766;15.338;2022-12-18T06:03:40;22.50;;;7.75;;
47635;SDS011;33364;50.766;15.338;2022-12-18T06:06:17;15.05;;;6.72;;
47635;SDS011;33364;50.766;15.338;2022-12-18T06:08:44;12.52;;;4.78;;
47635;SDS011;33364;50.766;15.338;2022-12-18T06:11:10;14.23;;;4.72;;
47635;SDS011;33364;50.766;15.338;2022-12-18T06:13:37;18.98;;;6.07;;
47635;SDS011;33364;50.766;15.338;2022-12-18T06:16:04;18.05;;;5.80;;
47635;SDS011;33364;50.766;15.338;2022-12-18T06:18:30;12.40;;;4.63;;
47635;SDS011;33364;50.766;15.338;2022-12-18T06:20:57;11.90;;;4.55;;
47635;SDS011;33364;50.766;15.338;2022-12-18T06:23:24;8.65;;;3.80;;
47635;SDS011;33364;50.766;15.338;2022-12-18T06:25:50;7.72;;;4.03;;
47635;SDS011;33364;50.766;15.338;2022-12-18T06:28:16;11.02;;;4.53;;
47635;SDS011;33364;50.766;15.338;2022-12-18T06:30:45;10.75;;;4.53;;
47635;SDS011;33364;50.766;15.338;2022-12-18T06:33:12;29.73;;;10.43;;
47635;SDS011;33364;50.766;15.338;2022-12-18T06:35:37;27.45;;;10.55;;
47635;SDS011;33364;50.766;15.338;2022-12-18T06:38:03;25.70;;;9.35;;
47635;SDS011;33364;50.766;15.338;2022-12-18T06:40:29;16.98;;;8.38;;
47635;SDS011;33364;50.766;15.338;2022-12-18T06:42:54;18.77;;;8.38;;
47635;SDS011;33364;50.766;15.338;2022-12-18T06:45:20;17.20;;;8.48;;
47635;SDS011;33364;50.766;15.338;2022-12-18T06:47:46;12.93;;;6.35;;
47635;SDS011;33364;50.766;15.338;2022-12-18T06:50:12;13.48;;;6.18;;
47635;SDS011;33364;50.766;15.338;2022-12-18T06:52:38;15.13;;;7.10;;
47635;SDS011;33364;50.766;15.338;2022-12-18T06:55:06;10.15;;;4.95;;
47635;SDS011;33364;50.766;15.338;2022-12-18T06:57:33;11.38;;;5.13;;
47635;SDS011;33364;50.766;15.338;2022-12-18T06:59:59;8.45;;;4.35;;
47635;SDS011;33364;50.766;15.338;2022-12-18T07:02:25;9.20;;;3.85;;
47635;SDS011;33364;50.766;15.338;2022-12-18T07:04:51;9.70;;;4.10;;
47635;SDS011;33364;50.766;15.338;2022-12-18T07:07:16;7.45;;;3.97;;
47635;SDS011;33364;50.766;15.338;2022-12-18T07:09:42;9.82;;;4.22;;
47635;SDS011;33364;50.766;15.338;2022-12-18T07:12:09;13.40;;;6.10;;
47635;SDS011;33364;50.766;15.338;2022-12-18T07:14:35;17.58;;;6.65;;
47635;SDS011;33364;50.766;15.338;2022-12-18T07:17:00;15.35;;;5.85;;
47635;SDS011;33364;50.766;15.338;2022-12-18T07:19:26;10.18;;;4.50;;
47635;SDS011;33364;50.766;15.338;2022-12-18T07:21:52;34.00;;;13.88;;
47635;SDS011;33364;50.766;15.338;2022-12-18T07:24:17;22.08;;;11.50;;
47635;SDS011;33364;50.766;15.338;2022-12-18T07:26:45;30.92;;;15.05;;
47635;SDS011;33364;50.766;15.338;2022-12-18T07:29:12;20.27;;;9.90;;
47635;SDS011;33364;50.766;15.338;2022-12-18T07:31:37;10.05;;;5.00;;
47635;SDS011;33364;50.766;15.338;2022-12-18T07:34:03;6.93;;;4.13;;
47635;SDS011;33364;50.766;15.338;2022-12-18T07:36:28;10.25;;;4.88;;
47635;SDS011;33364;50.766;15.338;2022-12-18T07:38:54;9.13;;;4.53;;
47635;SDS011;33364;50.766;15.338;2022-12-18T07:41:21;10.35;;;4.78;;
47635;SDS011;33364;50.766;15.338;2022-12-18T07:43:47;9.77;;;4.32;;
47635;SDS011;33364;50.766;15.338;2022-12-18T07:46:14;9.60;;;4.22;;
47635;SDS011;33364;50.766;15.338;2022-12-18T07:48:41;11.75;;;5.75;;
47635;SDS011;33364;50.766;15.338;2022-12-18T07:51:08;15.07;;;6.95;;
47635;SDS011;33364;50.766;15.338;2022-12-18T07:53:37;15.32;;;6.10;;
47635;SDS011;33364;50.766;15.338;2022-12-18T07:56:04;13.10;;;5.90;;
47635;SDS011;33364;50.766;15.338;2022-12-18T07:58:32;16.58;;;5.75;;
47635;SDS011;33364;50.766;15.338;2022-12-18T08:01:02;17.63;;;8.65;;
47635;SDS011;33364;50.766;15.338;2022-12-18T08:03:33;22.15;;;8.50;;
47635;SDS011;33364;50.766;15.338;2022-12-18T08:05:59;16.33;;;6.95;;
47635;SDS011;33364;50.766;15.338;2022-12-18T08:08:29;13.27;;;6.35;;
47635;SDS011;33364;50.766;15.338;2022-12-18T08:10:55;14.65;;;6.32;;
47635;SDS011;33364;50.766;15.338;2022-12-18T08:13:22;19.40;;;8.65;;
47635;SDS011;33364;50.766;15.338;2022-12-18T08:15:55;21.65;;;8.50;;
47635;SDS011;33364;50.766;15.338;2022-12-18T08:18:22;21.25;;;8.73;;
47635;SDS011;33364;50.766;15.338;2022-12-18T08:20:48;24.30;;;8.70;;
47635;SDS011;33364;50.766;15.338;2022-12-18T08:23:13;23.60;;;7.80;;
47635;SDS011;33364;50.766;15.338;2022-12-18T08:25:39;17.73;;;7.53;;
47635;SDS011;33364;50.766;15.338;2022-12-18T08:28:05;19.17;;;7.95;;
47635;SDS011;33364;50.766;15.338;2022-12-18T08:30:30;15.75;;;7.70;;
47635;SDS011;33364;50.766;15.338;2022-12-18T08:32:56;22.73;;;7.75;;
47635;SDS011;33364;50.766;15.338;2022-12-18T08:35:22;24.88;;;9.18;;
47635;SDS011;33364;50.766;15.338;2022-12-18T08:37:47;24.35;;;10.65;;
47635;SDS011;33364;50.766;15.338;2022-12-18T08:40:13;19.92;;;7.45;;
47635;SDS011;33364;50.766;15.338;2022-12-18T08:42:39;32.17;;;11.25;;
47635;SDS011;33364;50.766;15.338;2022-12-18T08:45:23;28.75;;;10.25;;
47635;SDS011;33364;50.766;15.338;2022-12-18T08:47:50;19.83;;;9.20;;
47635;SDS011;33364;50.766;15.338;2022-12-18T08:50:15;21.80;;;9.80;;
47635;SDS011;33364;50.766;15.338;2022-12-18T08:52:41;18.77;;;7.75;;
47635;SDS011;33364;50.766;15.338;2022-12-18T08:55:07;19.08;;;7.65;;
47635;SDS011;33364;50.766;15.338;2022-12-18T08:57:33;15.50;;;7.60;;
47635;SDS011;33364;50.766;15.338;2022-12-18T08:59:59;15.05;;;6.55;;
47635;SDS011;33364;50.766;15.338;2022-12-18T09:02:25;10.35;;;5.20;;
47635;SDS011;33364;50.766;15.338;2022-12-18T09:04:50;13.80;;;5.80;;
47635;SDS011;33364;50.766;15.338;2022-12-18T09:07:16;13.80;;;5.70;;
47635;SDS011;33364;50.766;15.338;2022-12-18T09:09:41;15.80;;;6.30;;
47635;SDS011;33364;50.766;15.338;2022-12-18T09:12:07;16.92;;;7.00;;
47635;SDS011;33364;50.766;15.338;2022-12-18T09:14:33;13.05;;;6.30;;
47635;SDS011;33364;50.766;15.338;2022-12-18T09:16:59;11.32;;;5.85;;
47635;SDS011;33364;50.766;15.338;2022-12-18T09:19:24;12.60;;;6.65;;
47635;SDS011;33364;50.766;15.338;2022-12-18T09:21:50;10.45;;;5.57;;
47635;SDS011;33364;50.766;15.338;2022-12-18T09:24:16;13.88;;;5.88;;
47635;SDS011;33364;50.766;15.338;2022-12-18T09:26:42;10.80;;;4.80;;
47635;SDS011;33364;50.766;15.338;2022-12-18T09:29:09;11.63;;;4.70;;
47635;SDS011;33364;50.766;15.338;2022-12-18T09:31:35;10.60;;;4.18;;
47635;SDS011;33364;50.766;15.338;2022-12-18T09:34:03;7.90;;;3.60;;
47635;SDS011;33364;50.766;15.338;2022-12-18T09:36:28;11.02;;;4.93;;
47635;SDS011;33364;50.766;15.338;2022-12-18T09:38:54;16.98;;;6.95;;
47635;SDS011;33364;50.766;15.338;2022-12-18T09:44:02;27.10;;;8.07;;
47635;SDS011;33364;50.766;15.338;2022-12-18T09:46:37;22.10;;;8.30;;
47635;SDS011;33364;50.766;15.338;2022-12-18T09:49:12;21.83;;;7.57;;
47635;SDS011;33364;50.766;15.338;2022-12-18T09:51:50;15.05;;;5.72;;
47635;SDS011;33364;50.766;15.338;2022-12-18T09:54:23;16.33;;;6.43;;
47635;SDS011;33364;50.766;15.338;2022-12-18T09:56:54;14.77;;;5.97;;
47635;SDS011;33364;50.766;15.338;2022-12-18T09:59:24;16.65;;;5.72;;
47635;SDS011;33364;50.766;15.338;2022-12-18T10:01:55;12.88;;;5.55;;
47635;SDS011;33364;50.766;15.338;2022-12-18T10:04:21;11.88;;;4.60;;
47635;SDS011;33364;50.766;15.338;2022-12-18T10:09:43;16.55;;;5.88;;
47635;SDS011;33364;50.766;15.338;2022-12-18T10:12:49;11.68;;;5.43;;
47635;SDS011;33364;50.766;15.338;2022-12-18T10:21:15;15.07;;;6.00;;
47635;SDS011;33364;50.766;15.338;2022-12-18T10:24:00;13.93;;;6.10;;
47635;SDS011;33364;50.766;15.338;2022-12-18T10:26:38;15.25;;;5.72;;
47635;SDS011;33364;50.766;15.338;2022-12-18T10:29:12;14.60;;;6.70;;
47635;SDS011;33364;50.766;15.338;2022-12-18T10:31:39;23.60;;;8.25;;
47635;SDS011;33364;50.766;15.338;2022-12-18T10:34:09;20.33;;;7.65;;
47635;SDS011;33364;50.766;15.338;2022-12-18T10:36:35;23.48;;;7.70;;
47635;SDS011;33364;50.766;15.338;2022-12-18T10:39:19;20.50;;;8.00;;
47635;SDS011;33364;50.766;15.338;2022-12-18T10:41:48;24.55;;;8.35;;
47635;SDS011;33364;50.766;15.338;2022-12-18T10:44:21;20.33;;;8.70;;
47635;SDS011;33364;50.766;15.338;2022-12-18T10:46:49;21.67;;;8.25;;
47635;SDS011;33364;50.766;15.338;2022-12-18T10:49:18;20.15;;;8.40;;
47635;SDS011;33364;50.766;15.338;2022-12-18T10:51:46;22.23;;;8.77;;
47635;SDS011;33364;50.766;15.338;2022-12-18T10:54:17;24.00;;;10.13;;
47635;SDS011;33364;50.766;15.338;2022-12-18T10:56:46;25.13;;;10.95;;
47635;SDS011;33364;50.766;15.338;2022-12-18T10:59:14;25.50;;;10.73;;
47635;SDS011;33364;50.766;15.338;2022-12-18T11:01:51;26.45;;;11.38;;
47635;SDS011;33364;50.766;15.338;2022-12-18T11:04:27;28.17;;;10.82;;
47635;SDS011;33364;50.766;15.338;2022-12-18T11:09:30;22.02;;;10.23;;
47635;SDS011;33364;50.766;15.338;2022-12-18T11:12:04;24.40;;;10.50;;
47635;SDS011;33364;50.766;15.338;2022-12-18T11:17:16;26.98;;;10.43;;
47635;SDS011;33364;50.766;15.338;2022-12-18T11:19:44;26.30;;;10.10;;
47635;SDS011;33364;50.766;15.338;2022-12-18T11:22:20;22.58;;;9.18;;
47635;SDS011;33364;50.766;15.338;2022-12-18T11:27:27;23.38;;;10.07;;
47635;SDS011;33364;50.766;15.338;2022-12-18T11:30:07;25.20;;;9.90;;
47635;SDS011;33364;50.766;15.338;2022-12-18T11:32:40;24.02;;;10.10;;
47635;SDS011;33364;50.766;15.338;2022-12-18T11:35:11;56.90;;;30.25;;
47635;SDS011;33364;50.766;15.338;2022-12-18T11:37:38;20.58;;;10.48;;
47635;SDS011;33364;50.766;15.338;2022-12-18T11:40:19;24.50;;;10.43;;
47635;SDS011;33364;50.766;15.338;2022-12-18T11:42:50;21.77;;;8.30;;
47635;SDS011;33364;50.766;15.338;2022-12-18T11:45:28;20.08;;;9.18;;
47635;SDS011;33364;50.766;15.338;2022-12-18T11:50:54;19.13;;;8.75;;
47635;SDS011;33364;50.766;15.338;2022-12-18T11:53:22;25.95;;;9.65;;
47635;SDS011;33364;50.766;15.338;2022-12-18T12:09:43;45.10;;;21.33;;
47635;SDS011;33364;50.766;15.338;2022-12-18T12:26:11;27.23;;;12.57;;
47635;SDS011;33364;50.766;15.338;2022-12-18T12:39:53;22.73;;;10.10;;
47635;SDS011;33364;50.766;15.338;2022-12-18T12:42:23;23.85;;;9.15;;
47635;SDS011;33364;50.766;15.338;2022-12-18T12:45:37;19.70;;;8.70;;
47635;SDS011;33364;50.766;15.338;2022-12-18T12:48:13;20.55;;;8.80;;
47635;SDS011;33364;50.766;15.338;2022-12-18T12:50:44;21.45;;;10.23;;
47635;SDS011;33364;50.766;15.338;2022-12-18T12:53:14;18.38;;;8.38;;
47635;SDS011;33364;50.766;15.338;2022-12-18T12:55:52;17.75;;;8.90;;
47635;SDS011;33364;50.766;15.338;2022-12-18T12:58:23;27.00;;;9.93;;
47635;SDS011;33364;50.766;15.338;2022-12-18T13:01:12;22.40;;;8.90;;
47635;SDS011;33364;50.766;15.338;2022-12-18T13:04:08;23.17;;;9.00;;
47635;SDS011;33364;50.766;15.338;2022-12-18T13:09:29;21.02;;;9.35;;
47635;SDS011;33364;50.766;15.338;2022-12-18T13:11:57;19.73;;;9.18;;
47635;SDS011;33364;50.766;15.338;2022-12-18T13:14:46;20.38;;;9.50;;
47635;SDS011;33364;50.766;15.338;2022-12-18T13:19:49;31.80;;;15.00;;
47635;SDS011;33364;50.766;15.338;2022-12-18T13:22:36;24.45;;;12.65;;
47635;SDS011;33364;50.766;15.338;2022-12-18T13:25:26;24.35;;;12.50;;
47635;SDS011;33364;50.766;15.338;2022-12-18T13:38:22;27.23;;;10.65;;
47635;SDS011;33364;50.766;15.338;2022-12-18T13:43:23;25.35;;;11.50;;
47635;SDS011;33364;50.766;15.338;2022-12-18T13:51:48;29.77;;;11.65;;
47635;SDS011;33364;50.766;15.338;2022-12-18T13:54:34;27.67;;;11.05;;
47635;SDS011;33364;50.766;15.338;2022-12-18T13:57:02;27.55;;;11.55;;
47635;SDS011;33364;50.766;15.338;2022-12-18T13:59:36;29.33;;;12.15;;
47635;SDS011;33364;50.766;15.338;2022-12-18T14:02:11;27.85;;;11.13;;
47635;SDS011;33364;50.766;15.338;2022-12-18T14:04:40;29.02;;;11.63;;
47635;SDS011;33364;50.766;15.338;2022-12-18T14:07:15;31.42;;;12.55;;
47635;SDS011;33364;50.766;15.338;2022-12-18T14:09:45;27.95;;;12.20;;
47635;SDS011;33364;50.766;15.338;2022-12-18T14:12:18;27.63;;;11.75;;
47635;SDS011;33364;50.766;15.338;2022-12-18T14:15:42;31.25;;;12.75;;
47635;SDS011;33364;50.766;15.338;2022-12-18T14:20:29;31.58;;;14.63;;
47635;SDS011;33364;50.766;15.338;2022-12-18T14:22:57;33.00;;;15.35;;
47635;SDS011;33364;50.766;15.338;2022-12-18T14:25:26;38.60;;;16.17;;
47635;SDS011;33364;50.766;15.338;2022-12-18T14:30:37;38.53;;;17.05;;
47635;SDS011;33364;50.766;15.338;2022-12-18T14:33:12;39.35;;;15.73;;
47635;SDS011;33364;50.766;15.338;2022-12-18T14:35:40;34.20;;;15.23;;
47635;SDS011;33364;50.766;15.338;2022-12-18T14:38:18;32.72;;;13.88;;
47635;SDS011;33364;50.766;15.338;2022-12-18T14:40:53;35.45;;;15.75;;
47635;SDS011;33364;50.766;15.338;2022-12-18T14:43:24;32.80;;;14.00;;
47635;SDS011;33364;50.766;15.338;2022-12-18T14:45:51;34.80;;;13.77;;
47635;SDS011;33364;50.766;15.338;2022-12-18T14:48:18;36.95;;;15.88;;
47635;SDS011;33364;50.766;15.338;2022-12-18T14:50:58;44.33;;;19.13;;
47635;SDS011;33364;50.766;15.338;2022-12-18T14:53:39;55.88;;;22.17;;
47635;SDS011;33364;50.766;15.338;2022-12-18T14:58:44;63.00;;;21.80;;
47635;SDS011;33364;50.766;15.338;2022-12-18T15:01:17;45.88;;;19.23;;
47635;SDS011;33364;50.766;15.338;2022-12-18T15:03:44;45.05;;;18.85;;
47635;SDS011;33364;50.766;15.338;2022-12-18T15:06:27;50.08;;;20.92;;
47635;SDS011;33364;50.766;15.338;2022-12-18T15:08:56;47.85;;;18.40;;
47635;SDS011;33364;50.766;15.338;2022-12-18T15:11:32;38.38;;;16.55;;
47635;SDS011;33364;50.766;15.338;2022-12-18T15:14:21;49.13;;;20.50;;
47635;SDS011;33364;50.766;15.338;2022-12-18T15:16:56;45.30;;;18.10;;
47635;SDS011;33364;50.766;15.338;2022-12-18T15:19:42;43.58;;;19.40;;
47635;SDS011;33364;50.766;15.338;2022-12-18T15:32:40;49.40;;;20.40;;
47635;SDS011;33364;50.766;15.338;2022-12-18T15:35:16;47.20;;;18.77;;
47635;SDS011;33364;50.766;15.338;2022-12-18T15:37:42;47.75;;;18.48;;
47635;SDS011;33364;50.766;15.338;2022-12-18T15:40:13;59.67;;;22.63;;
47635;SDS011;33364;50.766;15.338;2022-12-18T15:42:41;47.60;;;20.50;;
47635;SDS011;33364;50.766;15.338;2022-12-18T15:45:26;38.90;;;18.48;;
47635;SDS011;33364;50.766;15.338;2022-12-18T15:47:52;41.13;;;17.13;;
47635;SDS011;33364;50.766;15.338;2022-12-18T15:50:17;49.42;;;17.92;;
47635;SDS011;33364;50.766;15.338;2022-12-18T15:52:44;28.63;;;12.10;;
47635;SDS011;33364;50.766;15.338;2022-12-18T15:55:14;32.53;;;12.00;;
47635;SDS011;33364;50.766;15.338;2022-12-18T15:58:07;27.73;;;11.53;;
47635;SDS011;33364;50.766;15.338;2022-12-18T16:00:34;28.35;;;10.88;;
47635;SDS011;33364;50.766;15.338;2022-12-18T16:03:03;27.95;;;12.20;;
47635;SDS011;33364;50.766;15.338;2022-12-18T16:05:29;27.95;;;11.75;;
47635;SDS011;33364;50.766;15.338;2022-12-18T16:07:56;26.63;;;11.95;;
47635;SDS011;33364;50.766;15.338;2022-12-18T16:10:21;29.85;;;11.88;;
47635;SDS011;33364;50.766;15.338;2022-12-18T16:12:47;30.88;;;13.05;;
47635;SDS011;33364;50.766;15.338;2022-12-18T16:15:13;35.90;;;13.73;;
47635;SDS011;33364;50.766;15.338;2022-12-18T16:17:44;32.03;;;13.38;;
47635;SDS011;33364;50.766;15.338;2022-12-18T16:20:12;27.35;;;12.88;;
47635;SDS011;33364;50.766;15.338;2022-12-18T16:22:40;34.55;;;13.32;;
47635;SDS011;33364;50.766;15.338;2022-12-18T16:25:10;33.13;;;13.52;;
47635;SDS011;33364;50.766;15.338;2022-12-18T16:27:41;47.47;;;17.83;;
47635;SDS011;33364;50.766;15.338;2022-12-18T16:30:09;48.70;;;18.63;;
47635;SDS011;33364;50.766;15.338;2022-12-18T16:32:38;44.67;;;18.08;;
47635;SDS011;33364;50.766;15.338;2022-12-18T16:35:04;37.30;;;16.73;;
47635;SDS011;33364;50.766;15.338;2022-12-18T16:37:30;40.15;;;15.20;;
47635;SDS011;33364;50.766;15.338;2022-12-18T16:39:55;30.90;;;16.50;;
47635;SDS011;33364;50.766;15.338;2022-12-18T16:42:21;19.35;;;9.27;;
47635;SDS011;33364;50.766;15.338;2022-12-18T16:44:47;26.83;;;11.25;;
47635;SDS011;33364;50.766;15.338;2022-12-18T16:47:14;27.80;;;11.57;;
47635;SDS011;33364;50.766;15.338;2022-12-18T16:49:40;23.98;;;11.57;;
47635;SDS011;33364;50.766;15.338;2022-12-18T16:52:06;23.15;;;9.40;;